createdAt,value
2017-09-08T00:00:31.442Z,14.50
2017-09-08T00:02:59.033Z,14.60
2017-09-08T00:05:26.533Z,14.60
2017-09-08T00:07:54.067Z,14.60
2017-09-08T00:10:21.565Z,14.60
2017-09-08T00:12:49.063Z,14.60
2017-09-08T00:15:16.580Z,14.70
2017-09-08T00:17:44.105Z,14.70
2017-09-08T00:20:11.624Z,14.60
2017-09-08T00:22:39.912Z,14.60
2017-09-08T00:25:07.424Z,14.50
2017-09-08T00:27:34.916Z,14.60
2017-09-08T00:30:03.220Z,14.60
2017-09-08T00:32:30.720Z,14.50
2017-09-08T00:34:58.207Z,14.50
2017-09-08T00:37:25.720Z,14.50
2017-09-08T00:39:53.225Z,14.50
2017-09-08T00:42:21.525Z,14.50
2017-09-08T00:44:49.064Z,14.50
2017-09-08T00:47:16.634Z,14.50
2017-09-08T00:49:44.167Z,14.50
2017-09-08T00:52:12.421Z,14.40
2017-09-08T00:54:39.939Z,14.40
2017-09-08T00:57:07.453Z,14.30
2017-09-08T00:59:35.756Z,14.20
2017-09-08T01:02:03.269Z,14.20
2017-09-08T01:04:30.774Z,14.20
2017-09-08T01:06:58.319Z,14.20
2017-09-08T01:09:26.590Z,14.10
2017-09-08T01:11:54.846Z,14.10
2017-09-08T01:14:23.135Z,14.00
2017-09-08T01:16:51.413Z,14.00
2017-09-08T01:19:19.692Z,14.00
2017-09-08T01:21:47.196Z,13.90
2017-09-08T01:24:14.712Z,14.00
2017-09-08T01:26:42.222Z,13.90
2017-09-08T01:29:09.719Z,13.90
2017-09-08T01:31:37.246Z,13.90
2017-09-08T01:34:04.732Z,13.90
2017-09-08T01:36:32.252Z,13.90
2017-09-08T01:38:59.856Z,13.90
2017-09-08T01:41:27.368Z,14.00
2017-09-08T01:43:54.882Z,13.90
2017-09-08T01:46:22.427Z,13.90
2017-09-08T01:48:49.988Z,13.90
2017-09-08T01:51:17.496Z,13.90
2017-09-08T01:53:44.983Z,13.90
2017-09-08T01:56:13.286Z,13.90
2017-09-08T01:58:40.776Z,13.90
2017-09-08T02:01:08.269Z,13.90
2017-09-08T02:03:36.552Z,14.00
2017-09-08T02:06:04.808Z,14.00
2017-09-08T02:08:33.128Z,13.90
2017-09-08T02:11:00.672Z,13.90
2017-09-08T02:13:28.935Z,14.00
2017-09-08T02:15:57.233Z,13.90
2017-09-08T02:18:24.784Z,13.90
2017-09-08T02:20:52.304Z,13.90
2017-09-08T02:23:19.797Z,13.90
2017-09-08T02:25:47.367Z,13.80
2017-09-08T02:28:14.917Z,13.80
2017-09-08T02:30:42.420Z,13.70
2017-09-08T02:33:09.960Z,13.70
2017-09-08T02:35:37.488Z,13.70
2017-09-08T02:38:04.990Z,13.60
2017-09-08T02:40:32.537Z,13.60
2017-09-08T02:43:00.026Z,13.60
2017-09-08T02:45:27.516Z,13.60
2017-09-08T02:47:55.073Z,13.60
2017-09-08T02:50:22.651Z,13.60
2017-09-08T02:52:50.161Z,13.60
2017-09-08T02:55:18.440Z,13.50
2017-09-08T02:57:46.760Z,13.50
2017-09-08T03:00:14.299Z,13.50
2017-09-08T03:02:41.797Z,13.50
2017-09-08T03:05:09.294Z,13.40
2017-09-08T03:07:37.604Z,13.50
2017-09-08T03:10:05.104Z,13.50
2017-09-08T03:12:32.612Z,13.50
2017-09-08T03:15:00.101Z,13.60
2017-09-08T03:17:27.620Z,13.60
2017-09-08T03:19:55.106Z,13.60
2017-09-08T03:22:22.625Z,13.60
2017-09-08T03:24:50.883Z,13.60
2017-09-08T03:27:18.382Z,13.50
2017-09-08T03:29:45.919Z,13.60
2017-09-08T03:32:14.177Z,13.70
2017-09-08T03:34:42.440Z,13.70
2017-09-08T03:37:09.956Z,13.70
2017-09-08T03:39:37.497Z,13.70
2017-09-08T03:42:05.049Z,13.70
2017-09-08T03:44:32.568Z,13.70
2017-09-08T03:47:00.064Z,13.70
2017-09-08T03:49:27.577Z,13.70
2017-09-08T03:51:55.181Z,13.70
2017-09-08T03:54:22.745Z,13.80
2017-09-08T03:56:50.233Z,13.80
2017-09-08T03:59:17.756Z,13.80
2017-09-08T04:01:45.323Z,13.80
2017-09-08T04:04:12.817Z,13.80
2017-09-08T04:06:40.340Z,13.70
2017-09-08T04:09:07.828Z,13.80
2017-09-08T04:11:35.354Z,13.80
2017-09-08T04:14:02.853Z,13.80
2017-09-08T04:16:31.120Z,13.90
2017-09-08T04:18:58.639Z,13.90
2017-09-08T04:21:26.124Z,13.90
2017-09-08T04:23:53.636Z,13.90
2017-09-08T04:26:21.924Z,13.90
2017-09-08T04:28:49.419Z,13.90
2017-09-08T04:31:16.956Z,13.80
2017-09-08T04:33:44.443Z,13.80
2017-09-08T04:36:11.942Z,13.80
2017-09-08T04:38:40.236Z,13.90
2017-09-08T04:41:07.783Z,13.90
2017-09-08T04:43:35.302Z,13.80
2017-09-08T04:46:02.799Z,13.80
2017-09-08T04:48:30.316Z,13.80
2017-09-08T04:50:57.852Z,13.80
2017-09-08T04:53:25.371Z,13.70
2017-09-08T04:55:52.896Z,13.80
2017-09-08T04:58:20.392Z,13.80
2017-09-08T05:00:47.917Z,13.80
2017-09-08T05:03:16.272Z,13.80
2017-09-08T05:05:43.763Z,13.80
2017-09-08T05:08:12.041Z,13.70
2017-09-08T05:10:40.328Z,13.70
2017-09-08T05:13:07.857Z,13.70
2017-09-08T05:15:36.122Z,13.70
2017-09-08T05:18:04.410Z,13.80
2017-09-08T05:20:32.663Z,13.80
2017-09-08T05:23:00.988Z,13.80
2017-09-08T05:25:28.512Z,13.80
2017-09-08T05:27:56.845Z,13.80
2017-09-08T05:30:24.378Z,13.80
2017-09-08T05:32:51.932Z,13.80
2017-09-08T05:35:20.228Z,13.80
2017-09-08T05:37:47.774Z,13.80
2017-09-08T05:40:15.344Z,13.90
2017-09-08T05:42:42.856Z,13.90
2017-09-08T05:45:10.340Z,13.90
2017-09-08T05:47:37.912Z,14.00
2017-09-08T05:50:05.405Z,14.00
2017-09-08T05:52:32.916Z,14.00
2017-09-08T05:55:00.481Z,14.00
2017-09-08T05:57:28.020Z,14.10
2017-09-08T05:59:56.409Z,14.10
2017-09-08T06:02:23.921Z,14.00
2017-09-08T06:04:51.517Z,14.10
2017-09-08T06:07:19.796Z,14.10
2017-09-08T06:09:48.044Z,14.10
2017-09-08T06:12:16.320Z,14.20
2017-09-08T06:14:44.627Z,14.10
2017-09-08T06:17:12.156Z,14.10
2017-09-08T06:19:40.420Z,14.20
2017-09-08T06:22:07.908Z,14.20
2017-09-08T06:24:36.201Z,14.30
2017-09-08T06:27:03.716Z,14.30
2017-09-08T06:29:31.307Z,14.30
2017-09-08T06:31:58.848Z,14.30
2017-09-08T06:34:27.116Z,14.40
2017-09-08T06:36:55.373Z,14.50
2017-09-08T06:39:22.903Z,14.40
2017-09-08T06:41:50.403Z,14.50
2017-09-08T06:44:18.661Z,14.70
2017-09-08T06:46:46.196Z,14.70
2017-09-08T06:49:13.691Z,14.80
2017-09-08T06:51:41.957Z,14.90
2017-09-08T06:54:09.472Z,14.90
2017-09-08T06:56:36.972Z,15.00
2017-09-08T06:59:04.492Z,15.00
2017-09-08T07:01:31.980Z,15.00
2017-09-08T07:03:59.494Z,15.10
2017-09-08T07:06:27.019Z,15.00
2017-09-08T07:08:54.512Z,15.10
2017-09-08T07:11:22.039Z,15.00
2017-09-08T07:13:50.756Z,15.00
2017-09-08T07:16:18.283Z,15.00
2017-09-08T07:18:46.560Z,15.00
2017-09-08T07:21:14.817Z,15.10
2017-09-08T07:23:43.120Z,15.10
2017-09-08T07:26:11.401Z,15.10
2017-09-08T07:28:38.901Z,15.10
2017-09-08T07:31:06.427Z,15.20
2017-09-08T07:33:33.924Z,15.10
2017-09-08T07:36:01.443Z,15.10
2017-09-08T07:38:28.941Z,15.10
2017-09-08T07:40:56.557Z,15.20
2017-09-08T07:43:24.077Z,15.20
2017-09-08T07:45:52.384Z,15.20
2017-09-08T07:48:19.903Z,15.20
2017-09-08T07:50:47.397Z,15.30
2017-09-08T07:53:14.923Z,15.30
2017-09-08T07:55:43.195Z,15.40
2017-09-08T07:58:10.801Z,15.40
2017-09-08T08:00:38.340Z,15.40
2017-09-08T08:03:06.641Z,15.60
2017-09-08T08:05:34.184Z,15.60
2017-09-08T08:08:01.692Z,15.60
2017-09-08T08:10:29.320Z,15.70
2017-09-08T08:12:56.820Z,15.70
2017-09-08T08:15:25.092Z,15.90
2017-09-08T08:17:53.429Z,16.10
2017-09-08T08:20:20.949Z,16.10
2017-09-08T08:22:49.240Z,16.40
2017-09-08T08:25:17.542Z,16.50
2017-09-08T08:27:45.039Z,16.50
2017-09-08T08:30:12.595Z,16.60
2017-09-08T08:32:40.133Z,16.70
2017-09-08T08:35:07.653Z,16.80
2017-09-08T08:37:35.160Z,16.90
2017-09-08T08:40:02.684Z,17.00
2017-09-08T08:42:30.208Z,17.00
2017-09-08T08:44:58.508Z,17.20
2017-09-08T08:47:26.005Z,17.20
2017-09-08T08:49:53.609Z,17.20
2017-09-08T08:52:21.121Z,17.30
2017-09-08T08:54:48.609Z,17.40
2017-09-08T08:57:16.882Z,17.50
2017-09-08T08:59:45.170Z,17.70
2017-09-08T09:02:12.747Z,17.70
2017-09-08T09:04:40.293Z,17.80
2017-09-08T09:07:07.827Z,17.90
2017-09-08T09:09:36.085Z,18.10
2017-09-08T09:12:04.350Z,18.20
2017-09-08T09:14:31.873Z,18.10
2017-09-08T09:16:59.371Z,18.30
2017-09-08T09:19:26.887Z,18.30
2017-09-08T09:21:54.428Z,18.40
2017-09-08T09:24:22.746Z,18.40
2017-09-08T09:26:50.236Z,18.30
2017-09-08T09:29:18.491Z,18.30
2017-09-08T09:31:46.008Z,18.30
2017-09-08T09:34:13.549Z,18.40
2017-09-08T09:36:41.823Z,18.70
2017-09-08T09:39:09.369Z,18.70
2017-09-08T09:41:37.766Z,18.80
2017-09-08T09:44:05.320Z,18.70
2017-09-08T09:46:32.838Z,18.80
2017-09-08T09:49:00.328Z,18.90
2017-09-08T09:51:27.875Z,19.00
2017-09-08T09:53:56.165Z,19.00
2017-09-08T09:56:23.679Z,19.00
2017-09-08T09:58:51.213Z,19.20
2017-09-08T10:01:18.744Z,19.30
2017-09-08T10:03:46.237Z,19.40
2017-09-08T10:06:13.769Z,19.40
2017-09-08T10:08:41.316Z,19.40
2017-09-08T10:11:08.812Z,19.30
2017-09-08T10:13:36.332Z,19.40
2017-09-08T10:16:03.853Z,19.50
2017-09-08T10:18:31.344Z,19.60
2017-09-08T10:20:58.868Z,19.50
2017-09-08T10:23:26.385Z,19.40
2017-09-08T10:25:53.884Z,19.30
2017-09-08T10:28:21.372Z,19.30
2017-09-08T10:30:48.952Z,19.40
2017-09-08T10:33:16.436Z,19.50
2017-09-08T10:35:43.951Z,19.70
2017-09-08T10:38:11.541Z,19.90
2017-09-08T10:40:39.103Z,20.00
2017-09-08T10:43:06.600Z,19.90
2017-09-08T10:45:35.000Z,19.90
2017-09-08T10:48:02.535Z,19.80
2017-09-08T10:50:30.802Z,19.70
2017-09-08T10:52:58.385Z,19.70
2017-09-08T10:55:25.894Z,19.80
2017-09-08T10:57:53.402Z,19.80
2017-09-08T11:00:20.967Z,19.80
2017-09-08T11:02:48.471Z,19.90
2017-09-08T11:05:15.992Z,20.10
2017-09-08T11:07:43.516Z,20.30
2017-09-08T11:10:11.913Z,20.40
2017-09-08T11:12:39.456Z,20.40
2017-09-08T11:15:07.742Z,20.40
2017-09-08T11:17:35.263Z,20.30
2017-09-08T11:20:02.866Z,20.40
2017-09-08T11:22:30.437Z,20.40
2017-09-08T11:24:57.937Z,20.40
2017-09-08T11:27:25.468Z,20.40
2017-09-08T11:29:52.969Z,20.20
2017-09-08T11:35:30.763Z,20.20
2017-09-08T11:37:58.286Z,20.20
2017-09-08T11:40:25.820Z,20.10
2017-09-08T11:42:54.118Z,20.20
2017-09-08T11:45:21.675Z,20.10
2017-09-08T11:47:49.222Z,20.20
2017-09-08T11:50:16.721Z,20.20
2017-09-08T11:52:44.241Z,20.20
2017-09-08T11:55:11.734Z,20.20
2017-09-08T11:57:39.275Z,20.30
2017-09-08T12:00:06.798Z,20.40
2017-09-08T12:02:34.296Z,20.40
2017-09-08T12:05:01.823Z,20.40
2017-09-08T12:07:29.346Z,20.40
2017-09-08T12:09:57.595Z,20.40
2017-09-08T12:12:25.113Z,20.40
2017-09-08T12:14:52.660Z,20.40
2017-09-08T12:17:20.168Z,20.50
2017-09-08T12:19:47.656Z,20.50
2017-09-08T12:22:15.967Z,20.50
2017-09-08T12:24:43.512Z,20.50
2017-09-08T12:27:11.012Z,20.40
2017-09-08T12:29:38.533Z,20.30
2017-09-08T12:32:06.095Z,20.30
2017-09-08T12:34:33.653Z,20.30
2017-09-08T12:37:01.173Z,20.30
2017-09-08T12:39:28.700Z,20.30
2017-09-08T12:41:56.201Z,20.30
2017-09-08T12:44:24.457Z,20.20
2017-09-08T12:46:51.990Z,20.20
2017-09-08T12:49:19.492Z,20.20
2017-09-08T12:51:47.821Z,20.10
2017-09-08T12:54:15.341Z,20.10
2017-09-08T12:56:42.843Z,20.00
2017-09-08T12:59:10.333Z,20.00
2017-09-08T13:01:38.635Z,19.90
2017-09-08T13:04:06.160Z,19.90
2017-09-08T13:06:34.437Z,19.90
2017-09-08T13:09:01.967Z,19.90
2017-09-08T13:11:29.458Z,19.90
2017-09-08T13:13:57.748Z,20.00
2017-09-08T13:16:26.028Z,20.00
2017-09-08T13:18:53.562Z,20.00
2017-09-08T13:21:21.864Z,20.10
2017-09-08T13:23:50.124Z,20.10
2017-09-08T13:26:18.416Z,20.10
2017-09-08T13:28:45.926Z,20.00
2017-09-08T13:31:13.456Z,20.00
2017-09-08T13:33:40.972Z,20.00
2017-09-08T13:36:09.283Z,19.90
2017-09-08T13:38:36.820Z,19.90
2017-09-08T13:41:05.088Z,20.00
2017-09-08T13:43:33.382Z,20.00
2017-09-08T13:46:00.891Z,20.00
2017-09-08T13:48:28.416Z,20.10
2017-09-08T13:50:55.964Z,19.90
2017-09-08T13:53:23.496Z,19.80
2017-09-08T13:55:51.017Z,19.80
2017-09-08T13:58:19.286Z,19.90
2017-09-08T14:00:46.816Z,19.90
2017-09-08T14:03:14.300Z,19.90
2017-09-08T14:05:41.822Z,19.90
2017-09-08T14:08:09.336Z,19.90
2017-09-08T14:10:37.654Z,19.90
2017-09-08T14:13:05.152Z,19.90
2017-09-08T14:15:32.649Z,20.00
2017-09-08T14:18:00.933Z,20.10
2017-09-08T14:20:28.433Z,20.10
2017-09-08T14:22:55.953Z,20.00
2017-09-08T14:25:23.456Z,20.00
2017-09-08T14:27:50.965Z,20.00
2017-09-08T14:30:18.492Z,20.00
2017-09-08T14:32:46.764Z,19.90
2017-09-08T14:35:14.278Z,19.90
2017-09-08T14:37:41.824Z,19.90
2017-09-08T14:40:09.377Z,20.00
2017-09-08T14:42:36.897Z,19.90
2017-09-08T14:45:04.398Z,19.90
2017-09-08T14:47:31.899Z,20.00
2017-09-08T14:50:00.192Z,19.90
2017-09-08T14:52:28.509Z,19.90
2017-09-08T14:54:56.049Z,19.90
2017-09-08T14:57:23.544Z,20.00
2017-09-08T14:59:51.497Z,20.00
2017-09-08T15:02:19.053Z,20.00
2017-09-08T15:04:46.556Z,19.90
2017-09-08T15:07:14.858Z,20.00
2017-09-08T15:09:42.389Z,20.00
2017-09-08T15:12:09.899Z,20.00
2017-09-08T15:14:37.453Z,20.00
2017-09-08T15:17:05.005Z,20.00
2017-09-08T15:19:32.525Z,20.10
2017-09-08T15:22:00.801Z,20.00
2017-09-08T15:24:28.926Z,20.00
2017-09-08T15:26:56.963Z,19.90
2017-09-08T15:29:24.518Z,19.90
2017-09-08T15:31:52.772Z,20.00
2017-09-08T15:34:20.318Z,20.00
2017-09-08T15:36:47.815Z,20.00
2017-09-08T15:39:15.366Z,20.10
2017-09-08T15:41:43.637Z,20.10
2017-09-08T15:44:11.929Z,20.10
2017-09-08T15:46:39.428Z,20.10
2017-09-08T15:49:06.981Z,20.00
2017-09-08T15:51:34.508Z,20.00
2017-09-08T15:54:02.013Z,20.00
2017-09-08T15:56:29.550Z,19.90
2017-09-08T15:58:57.053Z,19.80
2017-09-08T16:01:25.324Z,19.90
2017-09-08T16:03:53.629Z,19.90
2017-09-08T16:06:21.140Z,19.90
2017-09-08T16:08:48.750Z,19.90
2017-09-08T16:11:16.240Z,19.80
2017-09-08T16:13:43.728Z,19.80
2017-09-08T16:16:12.032Z,19.80
2017-09-08T16:18:39.536Z,19.80
2017-09-08T16:21:07.079Z,19.70
2017-09-08T16:23:35.249Z,19.70
2017-09-08T16:26:02.766Z,19.70
2017-09-08T16:28:30.337Z,19.70
2017-09-08T16:30:57.844Z,19.70
2017-09-08T16:33:25.347Z,19.70
2017-09-08T16:35:52.893Z,19.70
2017-09-08T16:38:21.169Z,19.70
2017-09-08T16:43:51.468Z,19.70
2017-09-08T16:46:18.991Z,19.70
2017-09-08T16:48:47.252Z,19.60
2017-09-08T16:51:15.558Z,19.60
2017-09-08T16:53:43.065Z,19.50
2017-09-08T16:56:10.632Z,19.50
2017-09-08T16:58:38.142Z,19.60
2017-09-08T17:01:05.634Z,19.50
2017-09-08T17:03:33.153Z,19.50
2017-09-08T17:06:00.643Z,19.50
2017-09-08T17:08:28.164Z,19.40
2017-09-08T17:10:55.663Z,19.40
2017-09-08T17:13:23.184Z,19.30
2017-09-08T17:15:50.713Z,19.20
2017-09-08T17:18:18.217Z,19.20
2017-09-08T17:20:45.729Z,19.20
2017-09-08T17:23:13.255Z,19.20
2017-09-08T17:25:40.776Z,19.20
2017-09-08T17:28:08.296Z,19.10
2017-09-08T17:30:36.563Z,19.10
2017-09-08T17:33:04.088Z,19.10
2017-09-08T17:35:31.572Z,19.10
2017-09-08T17:37:59.075Z,19.10
2017-09-08T17:40:26.598Z,19.00
2017-09-08T17:42:54.874Z,18.90
2017-09-08T17:45:22.433Z,18.90
2017-09-08T17:47:49.946Z,18.90
2017-09-08T17:50:17.484Z,18.80
2017-09-08T17:52:44.989Z,18.80
2017-09-08T17:55:12.491Z,18.70
2017-09-08T17:57:40.009Z,18.60
2017-09-08T18:00:07.511Z,18.60
2017-09-08T18:02:35.057Z,18.50
2017-09-08T18:05:02.573Z,18.40
2017-09-08T18:07:30.096Z,18.40
2017-09-08T18:09:57.633Z,18.40
2017-09-08T18:12:25.129Z,18.50
2017-09-08T18:14:52.666Z,18.40
2017-09-08T18:17:20.162Z,18.40
2017-09-08T18:19:47.686Z,18.40
2017-09-08T18:22:15.196Z,18.40
2017-09-08T18:24:43.497Z,18.20
2017-09-08T18:27:11.048Z,18.20
2017-09-08T18:29:38.549Z,18.20
2017-09-08T18:32:06.098Z,18.20
2017-09-08T18:34:33.608Z,18.10
2017-09-08T18:37:01.911Z,18.10
2017-09-08T18:39:29.411Z,18.10
2017-09-08T18:41:56.910Z,18.10
2017-09-08T18:44:25.245Z,18.10
2017-09-08T18:46:52.761Z,18.10
2017-09-08T18:49:20.283Z,18.00
2017-09-08T18:51:47.781Z,18.00
2017-09-08T18:54:15.283Z,18.10
2017-09-08T18:56:42.866Z,18.10
2017-09-08T18:59:11.130Z,18.00
2017-09-08T19:01:39.436Z,18.00
2017-09-08T19:04:06.937Z,18.00
2017-09-08T19:06:34.471Z,18.00
2017-09-08T19:09:01.972Z,17.90
2017-09-08T19:11:30.288Z,17.80
2017-09-08T19:13:57.828Z,17.80
2017-09-08T19:16:26.111Z,17.70
2017-09-08T19:18:53.603Z,17.70
2017-09-08T19:21:21.127Z,17.80
2017-09-08T19:23:48.687Z,17.70
2017-09-08T19:26:16.193Z,17.70
2017-09-08T19:28:43.731Z,17.70
2017-09-08T19:31:11.278Z,17.70
2017-09-08T19:33:38.788Z,17.70
2017-09-08T19:36:06.308Z,17.60
2017-09-08T19:38:33.836Z,17.60
2017-09-08T19:41:01.394Z,17.60
2017-09-08T19:43:28.954Z,17.60
2017-09-08T19:45:56.480Z,17.50
2017-09-08T19:48:23.993Z,17.60
2017-09-08T19:50:51.544Z,17.50
2017-09-08T19:53:19.055Z,17.50
2017-09-08T19:55:47.319Z,17.50
2017-09-08T19:58:14.859Z,17.50
2017-09-08T20:00:42.369Z,17.50
2017-09-08T20:03:09.913Z,17.50
2017-09-08T20:05:38.181Z,17.30
2017-09-08T20:08:05.685Z,17.30
2017-09-08T20:10:33.213Z,17.30
2017-09-08T20:13:00.750Z,17.30
2017-09-08T20:15:29.053Z,17.30
2017-09-08T20:17:56.595Z,17.20
2017-09-08T20:20:24.909Z,17.20
2017-09-08T20:22:52.423Z,17.20
2017-09-08T20:25:20.692Z,17.10
2017-09-08T20:27:49.012Z,17.10
2017-09-08T20:30:17.210Z,17.10
2017-09-08T20:32:44.722Z,17.10
2017-09-08T20:35:13.013Z,17.10
2017-09-08T20:37:40.541Z,17.10
2017-09-08T20:40:08.810Z,17.00
2017-09-08T20:42:37.071Z,17.00
2017-09-08T20:45:04.621Z,17.00
2017-09-08T20:47:32.159Z,17.00
2017-09-08T20:49:59.689Z,17.00
2017-09-08T20:52:27.221Z,16.90
2017-09-08T20:54:55.543Z,16.90
2017-09-08T20:57:23.048Z,16.90
2017-09-08T20:59:50.589Z,16.90
2017-09-08T21:02:18.200Z,16.90
2017-09-08T21:04:45.758Z,16.80
2017-09-08T21:07:13.397Z,16.80
2017-09-08T21:09:41.698Z,16.70
2017-09-08T21:12:09.234Z,16.70
2017-09-08T21:14:37.515Z,16.80
2017-09-08T21:17:05.093Z,16.70
2017-09-08T21:19:32.602Z,16.80
2017-09-08T21:22:00.124Z,16.80
2017-09-08T21:24:27.740Z,16.70
2017-09-08T21:26:56.005Z,16.70
2017-09-08T21:29:24.299Z,16.70
2017-09-08T21:31:52.574Z,16.70
2017-09-08T21:34:20.140Z,16.70
2017-09-08T21:36:47.652Z,16.70
2017-09-08T21:39:15.230Z,16.70
2017-09-08T21:41:43.514Z,16.70
2017-09-08T21:44:11.796Z,16.70
2017-09-08T21:46:40.112Z,16.70
2017-09-08T21:49:07.616Z,16.70
2017-09-08T21:51:35.914Z,16.60
2017-09-08T21:54:03.424Z,16.60
2017-09-08T21:56:30.916Z,16.60
2017-09-08T21:58:59.201Z,16.50
2017-09-08T22:01:26.714Z,16.50
2017-09-08T22:03:54.250Z,16.50
2017-09-08T22:06:21.757Z,16.50
2017-09-08T22:08:50.062Z,16.40
2017-09-08T22:11:17.559Z,16.40
2017-09-08T22:13:45.052Z,16.40
2017-09-08T22:16:12.576Z,16.40
2017-09-08T22:18:40.875Z,16.30
2017-09-08T22:21:08.396Z,16.30
2017-09-08T22:23:35.891Z,16.30
2017-09-08T22:26:04.172Z,16.20
2017-09-08T22:28:32.540Z,16.20
2017-09-08T22:31:00.038Z,16.10
2017-09-08T22:33:27.580Z,16.10
2017-09-08T22:35:55.178Z,16.10
2017-09-08T22:38:22.962Z,16.10
2017-09-08T22:40:51.272Z,16.00
2017-09-08T22:43:19.552Z,16.00
2017-09-08T22:45:47.054Z,16.00
2017-09-08T22:48:14.572Z,16.00
2017-09-08T22:50:42.267Z,16.00
2017-09-08T22:53:09.914Z,15.90
2017-09-08T22:55:37.412Z,15.80
2017-09-08T22:58:04.926Z,15.90
2017-09-08T23:00:32.526Z,15.80
2017-09-08T23:03:00.027Z,15.80
2017-09-08T23:05:27.896Z,15.80
2017-09-08T23:07:55.393Z,15.80
2017-09-08T23:10:22.922Z,15.80
2017-09-08T23:12:50.873Z,15.80
2017-09-08T23:15:18.369Z,15.80
2017-09-08T23:17:45.891Z,15.80
2017-09-08T23:20:13.401Z,15.80
2017-09-08T23:22:40.914Z,15.80
2017-09-08T23:25:08.412Z,15.70
2017-09-08T23:27:35.935Z,15.70
2017-09-08T23:30:03.467Z,15.70
2017-09-08T23:32:31.754Z,15.70
2017-09-08T23:34:59.264Z,15.60
2017-09-08T23:37:26.783Z,15.60
2017-09-08T23:39:54.350Z,15.70
2017-09-08T23:42:21.847Z,15.70
2017-09-08T23:44:50.136Z,15.80
2017-09-08T23:47:18.401Z,15.70
2017-09-08T23:49:45.889Z,15.70
2017-09-08T23:52:13.437Z,15.70
2017-09-08T23:54:41.700Z,15.70
2017-09-08T23:57:09.963Z,15.70
2017-09-08T23:59:37.484Z,15.70
